createdAt,value
2016-06-29T00:00:25.736Z,1002.31
2016-06-29T00:01:25.718Z,1002.31
2016-06-29T00:02:25.715Z,1002.32
2016-06-29T00:03:25.698Z,1002.33
2016-06-29T00:04:25.691Z,1002.33
2016-06-29T00:05:25.674Z,1002.32
2016-06-29T00:06:25.667Z,1002.34
2016-06-29T00:07:25.657Z,1002.3
2016-06-29T00:08:25.840Z,1002.28
2016-06-29T00:09:25.630Z,1002.26
2016-06-29T00:10:25.620Z,1002.26
2016-06-29T00:11:25.606Z,1002.25
2016-06-29T00:12:25.607Z,1002.19
2016-06-29T00:13:25.583Z,1002.18
2016-06-29T00:14:25.582Z,1002.1
2016-06-29T00:15:25.566Z,1001.97
2016-06-29T00:16:25.546Z,1001.93
2016-06-29T00:17:25.547Z,1001.87
2016-06-29T00:18:25.537Z,1001.89
2016-06-29T00:19:25.523Z,1001.91
2016-06-29T00:20:25.515Z,1001.87
2016-06-29T00:21:25.511Z,1001.79
2016-06-29T00:22:25.490Z,1001.78
2016-06-29T00:23:25.466Z,1001.75
2016-06-29T00:24:25.453Z,1001.78
2016-06-29T00:25:25.440Z,1001.75
2016-06-29T00:26:25.431Z,1001.75
2016-06-29T00:27:25.419Z,1001.77
2016-06-29T00:28:25.408Z,1001.78
2016-06-29T00:29:25.394Z,1001.75
2016-06-29T00:30:25.379Z,1001.74
2016-06-29T00:31:25.371Z,1001.76
2016-06-29T00:32:25.364Z,1001.72
2016-06-29T00:33:25.380Z,1001.73
2016-06-29T00:34:25.333Z,1001.75
2016-06-29T00:35:25.320Z,1001.76
2016-06-29T00:36:25.311Z,1001.71
2016-06-29T00:37:25.301Z,1001.72
2016-06-29T00:38:25.294Z,1001.73
2016-06-29T00:39:25.283Z,1001.75
2016-06-29T00:40:25.263Z,1001.78
2016-06-29T00:41:25.254Z,1001.76
2016-06-29T00:42:25.244Z,1001.77
2016-06-29T00:43:25.232Z,1001.75
2016-06-29T00:44:25.223Z,1001.71
2016-06-29T00:45:25.204Z,1001.65
2016-06-29T00:46:25.198Z,1001.65
2016-06-29T00:47:25.186Z,1001.59
2016-06-29T00:48:25.187Z,1001.61
2016-06-29T00:49:25.161Z,1001.56
2016-06-29T00:50:25.147Z,1001.6
2016-06-29T00:51:25.138Z,1001.62
2016-06-29T00:52:25.120Z,1001.59
2016-06-29T00:53:25.119Z,1001.58
2016-06-29T00:54:25.153Z,1001.54
2016-06-29T00:55:25.088Z,1001.49
2016-06-29T00:56:25.077Z,1001.5
2016-06-29T00:57:25.115Z,1001.44
2016-06-29T00:58:25.058Z,1001.38
2016-06-29T00:59:25.046Z,1001.35
2016-06-29T01:00:25.035Z,1001.31
2016-06-29T01:01:25.022Z,1001.28
2016-06-29T01:02:25.006Z,1001.25
2016-06-29T01:03:24.999Z,1001.19
2016-06-29T01:04:24.986Z,1001.17
2016-06-29T01:05:24.975Z,1001.17
2016-06-29T01:06:24.959Z,1001.17
2016-06-29T01:07:24.954Z,1001.17
2016-06-29T01:08:24.941Z,1001.2
2016-06-29T01:09:24.926Z,1001.22
2016-06-29T01:10:24.918Z,1001.18
2016-06-29T01:11:24.902Z,1001.21
2016-06-29T01:12:24.894Z,1001.19
2016-06-29T01:13:24.881Z,1001.19
2016-06-29T01:14:24.867Z,1001.19
2016-06-29T01:15:24.854Z,1001.12
2016-06-29T01:16:24.845Z,1001.19
2016-06-29T01:17:24.833Z,1001.2
2016-06-29T01:18:24.821Z,1001.18
2016-06-29T01:19:24.810Z,1001.19
2016-06-29T01:20:24.804Z,1001.19
2016-06-29T01:21:24.794Z,1001.14
2016-06-29T01:22:24.784Z,1001.12
2016-06-29T01:23:24.769Z,1001.13
2016-06-29T01:24:24.755Z,1001.13
2016-06-29T01:25:24.741Z,1001.08
2016-06-29T01:26:24.726Z,1001.12
2016-06-29T01:27:24.717Z,1001.12
2016-06-29T01:28:24.705Z,1001.13
2016-06-29T01:29:24.691Z,1001.12
2016-06-29T01:30:24.675Z,1001.11
2016-06-29T01:31:24.672Z,1001.14
2016-06-29T01:32:24.658Z,1001.11
2016-06-29T01:33:24.648Z,1001.13
2016-06-29T01:34:24.640Z,1001.08
2016-06-29T01:35:24.619Z,1001.09
2016-06-29T01:36:24.615Z,1001.11
2016-06-29T01:37:24.599Z,1001.1
2016-06-29T01:38:24.587Z,1001.1
2016-06-29T01:39:24.590Z,1001.08
2016-06-29T01:40:24.569Z,1001.05
2016-06-29T01:41:24.605Z,1001.03
2016-06-29T01:42:24.562Z,1001.01
2016-06-29T01:43:24.531Z,1001.06
2016-06-29T01:44:24.517Z,1001.08
2016-06-29T01:45:24.507Z,1001.08
2016-06-29T01:46:24.491Z,1001.06
2016-06-29T01:47:24.478Z,1001.03
2016-06-29T01:48:24.476Z,1001.01
2016-06-29T01:49:24.460Z,1001.04
2016-06-29T01:50:24.440Z,1001.08
2016-06-29T01:51:24.434Z,1000.99
2016-06-29T01:52:24.427Z,1001
2016-06-29T01:53:24.412Z,1001.09
2016-06-29T01:54:24.395Z,1001
2016-06-29T01:55:24.383Z,1001.01
2016-06-29T01:56:24.371Z,1001.01
2016-06-29T01:57:24.366Z,1001.05
2016-06-29T01:58:24.350Z,1001.07
2016-06-29T01:59:24.337Z,1001.04
2016-06-29T02:00:24.325Z,1001.05
2016-06-29T02:01:24.315Z,1001.06
2016-06-29T02:02:24.311Z,1001.04
2016-06-29T02:03:24.290Z,1001.08
2016-06-29T02:04:24.274Z,1001.11
2016-06-29T02:05:24.266Z,1001.11
2016-06-29T02:06:24.251Z,1001.16
2016-06-29T02:07:24.239Z,1001.11
2016-06-29T02:08:24.435Z,1001.16
2016-06-29T02:09:24.217Z,1001.16
2016-06-29T02:10:24.208Z,1001.14
2016-06-29T02:11:24.195Z,1001.16
2016-06-29T02:12:24.186Z,1001.26
2016-06-29T02:13:24.170Z,1001.31
2016-06-29T02:14:24.153Z,1001.28
2016-06-29T02:15:24.146Z,1001.29
2016-06-29T02:16:24.131Z,1001.28
2016-06-29T02:17:24.118Z,1001.28
2016-06-29T02:18:24.125Z,1001.35
2016-06-29T02:19:24.092Z,1001.31
2016-06-29T02:20:24.087Z,1001.34
2016-06-29T02:21:24.075Z,1001.37
2016-06-29T02:22:24.060Z,1001.38
2016-06-29T02:23:24.046Z,1001.39
2016-06-29T02:24:24.087Z,1001.35
2016-06-29T02:25:24.022Z,1001.35
2016-06-29T02:26:24.010Z,1001.33
2016-06-29T02:27:23.998Z,1001.36
2016-06-29T02:28:23.988Z,1001.4
2016-06-29T02:29:23.971Z,1001.41
2016-06-29T02:30:23.965Z,1001.53
2016-06-29T02:31:23.947Z,1001.47
2016-06-29T02:32:23.945Z,1001.51
2016-06-29T02:33:23.974Z,1001.54
2016-06-29T02:34:23.917Z,1001.53
2016-06-29T02:35:23.906Z,1001.54
2016-06-29T02:36:23.900Z,1001.53
2016-06-29T02:37:23.872Z,1001.55
2016-06-29T02:38:23.865Z,1001.61
2016-06-29T02:39:23.853Z,1001.63
2016-06-29T02:40:23.850Z,1001.54
2016-06-29T02:41:23.829Z,1001.55
2016-06-29T02:42:23.811Z,1001.43
2016-06-29T02:43:23.814Z,1001.35
2016-06-29T02:44:23.791Z,1001.37
2016-06-29T02:45:23.776Z,1001.34
2016-06-29T02:46:23.782Z,1001.39
2016-06-29T02:47:23.752Z,1001.41
2016-06-29T02:48:23.738Z,1001.55
2016-06-29T02:49:23.727Z,1001.47
2016-06-29T02:50:23.733Z,1001.43
2016-06-29T02:51:23.714Z,1001.44
2016-06-29T02:52:23.746Z,1001.42
2016-06-29T02:53:23.678Z,1001.48
2016-06-29T02:54:23.666Z,1001.56
2016-06-29T02:55:23.655Z,1001.55
2016-06-29T02:56:23.636Z,1001.55
2016-06-29T02:57:23.629Z,1001.58
2016-06-29T02:58:23.619Z,1001.6
2016-06-29T02:59:23.604Z,1001.59
2016-06-29T03:00:23.598Z,1001.6
2016-06-29T03:01:23.587Z,1001.65
2016-06-29T03:02:23.571Z,1001.6
2016-06-29T03:03:23.558Z,1001.62
2016-06-29T03:04:23.539Z,1001.66
2016-06-29T03:05:23.530Z,1001.68
2016-06-29T03:06:23.519Z,1001.73
2016-06-29T03:07:23.511Z,1001.75
2016-06-29T03:08:23.503Z,1001.79
2016-06-29T03:09:23.485Z,1001.83
2016-06-29T03:10:23.468Z,1001.81
2016-06-29T03:11:23.452Z,1001.81
2016-06-29T03:12:23.449Z,1001.78
2016-06-29T03:13:23.431Z,1001.79
2016-06-29T03:14:23.442Z,1001.72
2016-06-29T03:15:23.410Z,1001.72
2016-06-29T03:16:23.396Z,1001.72
2016-06-29T03:17:23.385Z,1001.73
2016-06-29T03:18:23.366Z,1001.67
2016-06-29T03:19:23.356Z,1001.71
2016-06-29T03:20:23.342Z,1001.64
2016-06-29T03:21:23.332Z,1001.68
2016-06-29T03:22:23.318Z,1001.68
2016-06-29T03:23:23.306Z,1001.71
2016-06-29T03:24:23.293Z,1001.78
2016-06-29T03:25:23.284Z,1001.78
2016-06-29T03:26:23.266Z,1001.77
2016-06-29T03:27:23.254Z,1001.77
2016-06-29T03:28:23.248Z,1001.76
2016-06-29T03:29:23.234Z,1001.76
2016-06-29T03:30:23.222Z,1001.78
2016-06-29T03:31:23.209Z,1001.79
2016-06-29T03:32:23.196Z,1001.79
2016-06-29T03:33:23.179Z,1001.77
2016-06-29T03:34:23.168Z,1001.78
2016-06-29T03:35:23.163Z,1001.74
2016-06-29T03:36:23.147Z,1001.75
2016-06-29T03:37:23.145Z,1001.74
2016-06-29T03:38:23.121Z,1001.8
2016-06-29T03:39:23.113Z,1001.81
2016-06-29T03:40:23.093Z,1001.86
2016-06-29T03:41:23.084Z,1001.81
2016-06-29T03:42:23.073Z,1001.78
2016-06-29T03:43:23.055Z,1001.81
2016-06-29T03:44:23.042Z,1001.82
2016-06-29T03:45:23.029Z,1001.85
2016-06-29T03:46:23.026Z,1001.87
2016-06-29T03:47:23.012Z,1001.82
2016-06-29T03:48:22.995Z,1001.82
2016-06-29T03:49:22.983Z,1001.87
2016-06-29T03:50:22.966Z,1001.92
2016-06-29T03:51:22.960Z,1001.9
2016-06-29T03:52:22.950Z,1001.88
2016-06-29T03:53:22.937Z,1001.9
2016-06-29T03:54:22.922Z,1001.96
2016-06-29T03:55:22.907Z,1001.96
2016-06-29T03:56:22.892Z,1001.99
2016-06-29T03:57:22.887Z,1002
2016-06-29T03:58:22.866Z,1002.01
2016-06-29T03:59:22.861Z,1002.03
2016-06-29T04:00:22.862Z,1002.04
2016-06-29T04:01:22.894Z,1002.05
2016-06-29T04:02:22.821Z,1002.07
2016-06-29T04:03:22.804Z,1002.06
2016-06-29T04:04:22.793Z,1002.07
2016-06-29T04:05:22.781Z,1002.1
2016-06-29T04:06:22.768Z,1002.09
2016-06-29T04:07:22.753Z,1002.07
2016-06-29T04:08:22.746Z,1002.08
2016-06-29T04:09:22.728Z,1002.06
2016-06-29T04:10:22.715Z,1002.04
2016-06-29T04:11:22.704Z,1002.08
2016-06-29T04:12:22.697Z,1002.12
2016-06-29T04:13:22.679Z,1002.09
2016-06-29T04:14:22.670Z,1002.12
2016-06-29T04:15:22.653Z,1002.15
2016-06-29T04:16:22.647Z,1002.13
2016-06-29T04:17:22.629Z,1002.14
2016-06-29T04:18:22.621Z,1002.15
2016-06-29T04:19:22.604Z,1002.16
2016-06-29T04:20:22.599Z,1002.17
2016-06-29T04:21:22.581Z,1002.18
2016-06-29T04:22:22.571Z,1002.18
2016-06-29T04:23:22.554Z,1002.14
2016-06-29T04:24:22.543Z,1002.21
2016-06-29T04:25:22.531Z,1002.2
2016-06-29T04:26:22.519Z,1002.13
2016-06-29T04:27:22.506Z,1002.12
2016-06-29T04:28:22.497Z,1002.12
2016-06-29T04:29:22.483Z,1002.12
2016-06-29T04:30:22.490Z,1002.12
2016-06-29T04:31:22.463Z,1002.13
2016-06-29T04:32:22.444Z,1002.14
2016-06-29T04:33:22.432Z,1002.16
2016-06-29T04:34:22.444Z,1002.18
2016-06-29T04:35:22.454Z,1002.17
2016-06-29T04:36:22.395Z,1002.19
2016-06-29T04:37:22.387Z,1002.21
2016-06-29T04:38:22.371Z,1002.22
2016-06-29T04:39:22.356Z,1002.23
2016-06-29T04:40:22.343Z,1002.26
2016-06-29T04:41:22.330Z,1002.28
2016-06-29T04:42:22.319Z,1002.28
2016-06-29T04:43:22.305Z,1002.23
2016-06-29T04:44:22.297Z,1002.27
2016-06-29T04:45:22.291Z,1002.23
2016-06-29T04:46:22.783Z,1002.29
2016-06-29T04:47:22.261Z,1002.24
2016-06-29T04:48:22.251Z,1002.21
2016-06-29T04:49:22.233Z,1002.3
2016-06-29T04:50:22.218Z,1002.3
2016-06-29T04:51:22.218Z,1002.32
2016-06-29T04:52:22.193Z,1002.33
2016-06-29T04:53:22.184Z,1002.29
2016-06-29T04:54:22.171Z,1002.31
2016-06-29T04:55:22.163Z,1002.36
2016-06-29T04:56:22.147Z,1002.37
2016-06-29T04:57:22.133Z,1002.37
2016-06-29T04:58:22.122Z,1002.36
2016-06-29T04:59:22.122Z,1002.32
2016-06-29T05:00:22.114Z,1002.35
2016-06-29T05:01:22.078Z,1002.32
2016-06-29T05:02:22.068Z,1002.35
2016-06-29T05:03:22.063Z,1002.33
2016-06-29T05:04:22.045Z,1002.33
2016-06-29T05:05:22.031Z,1002.29
2016-06-29T05:06:22.025Z,1002.29
2016-06-29T05:07:22.006Z,1002.34
2016-06-29T05:08:21.994Z,1002.36
2016-06-29T05:09:21.984Z,1002.33
2016-06-29T05:10:21.978Z,1002.33
2016-06-29T05:11:21.959Z,1002.38
2016-06-29T05:12:21.943Z,1002.36
2016-06-29T05:13:21.941Z,1002.39
2016-06-29T05:14:21.919Z,1002.39
2016-06-29T05:15:21.909Z,1002.42
2016-06-29T05:16:21.898Z,1002.37
2016-06-29T05:17:21.891Z,1002.37
2016-06-29T05:18:21.873Z,1002.41
2016-06-29T05:19:21.863Z,1002.44
2016-06-29T05:20:21.886Z,1002.4
2016-06-29T05:21:21.836Z,1002.43
2016-06-29T05:22:21.830Z,1002.46
2016-06-29T05:23:21.813Z,1002.47
2016-06-29T05:24:21.801Z,1002.42
2016-06-29T05:25:21.790Z,1002.43
2016-06-29T05:26:21.777Z,1002.39
2016-06-29T05:27:21.760Z,1002.44
2016-06-29T05:28:21.813Z,1002.42
2016-06-29T05:29:21.745Z,1002.5
2016-06-29T05:30:21.733Z,1002.49
2016-06-29T05:31:21.742Z,1002.52
2016-06-29T05:32:21.710Z,1002.47
2016-06-29T05:33:21.692Z,1002.5
2016-06-29T05:34:21.676Z,1002.46
2016-06-29T05:35:21.666Z,1002.52
2016-06-29T05:36:21.654Z,1002.52
2016-06-29T05:37:21.638Z,1002.54
2016-06-29T05:38:21.632Z,1002.53
2016-06-29T05:39:21.622Z,1002.7
2016-06-29T05:40:21.603Z,1002.7
2016-06-29T05:41:21.594Z,1002.67
2016-06-29T05:42:21.583Z,1002.79
2016-06-29T05:43:21.567Z,1002.84
2016-06-29T05:44:21.557Z,1002.74
2016-06-29T05:45:21.541Z,1002.74
2016-06-29T05:46:21.533Z,1002.82
2016-06-29T05:47:21.519Z,1002.81
2016-06-29T05:48:21.507Z,1002.8
2016-06-29T05:49:21.494Z,1002.86
2016-06-29T05:50:21.483Z,1002.81
2016-06-29T05:51:21.469Z,1002.82
2016-06-29T05:52:21.460Z,1002.91
2016-06-29T05:53:21.451Z,1002.94
2016-06-29T05:54:21.433Z,1002.91
2016-06-29T05:55:21.421Z,1002.9
2016-06-29T05:56:21.407Z,1002.96
2016-06-29T05:57:21.401Z,1003.04
2016-06-29T05:58:21.383Z,1002.93
2016-06-29T05:59:21.374Z,1002.9
2016-06-29T06:00:21.360Z,1003.02
2016-06-29T06:01:21.353Z,1002.98
2016-06-29T06:02:21.335Z,1002.96
2016-06-29T06:03:21.322Z,1002.89
2016-06-29T06:04:21.308Z,1002.95
2016-06-29T06:05:21.301Z,1002.97
2016-06-29T06:06:21.286Z,1002.97
2016-06-29T06:07:21.278Z,1003
2016-06-29T06:08:21.261Z,1003.06
2016-06-29T06:09:21.454Z,1003.04
2016-06-29T06:10:21.239Z,1003.08
2016-06-29T06:11:21.230Z,1003.01
2016-06-29T06:12:21.217Z,1003.05
2016-06-29T06:13:21.204Z,1003.07
2016-06-29T06:14:21.192Z,1003.09
2016-06-29T06:15:21.176Z,1003.09
2016-06-29T06:16:21.215Z,1003.06
2016-06-29T06:17:21.150Z,1003.14
2016-06-29T06:18:21.142Z,1003.14
2016-06-29T06:19:21.129Z,1003.17
2016-06-29T06:20:21.124Z,1003.26
2016-06-29T06:21:21.110Z,1003.12
2016-06-29T06:22:21.093Z,1003.17
2016-06-29T06:23:21.082Z,1003.14
2016-06-29T06:24:21.070Z,1003.13
2016-06-29T06:25:21.059Z,1003.16
2016-06-29T06:26:21.043Z,1003.18
2016-06-29T06:27:21.026Z,1003.17
2016-06-29T06:28:21.021Z,1003.22
2016-06-29T06:29:21.003Z,1003.2
2016-06-29T06:30:20.990Z,1003.16
2016-06-29T06:31:20.979Z,1003.26
2016-06-29T06:32:20.971Z,1003.23
2016-06-29T06:33:20.962Z,1003.21
2016-06-29T06:34:20.944Z,1003.25
2016-06-29T06:35:20.928Z,1003.17
2016-06-29T06:36:20.924Z,1003.19
2016-06-29T06:37:20.905Z,1003.26
2016-06-29T06:38:20.896Z,1003.25
2016-06-29T06:39:20.883Z,1003.19
2016-06-29T06:40:20.879Z,1003.26
2016-06-29T06:41:20.860Z,1003.28
2016-06-29T06:42:20.847Z,1003.25
2016-06-29T06:43:20.829Z,1003.22
2016-06-29T06:44:20.821Z,1003.22
2016-06-29T06:45:20.807Z,1003.27
2016-06-29T06:46:20.798Z,1003.31
2016-06-29T06:47:20.786Z,1003.32
2016-06-29T06:48:20.779Z,1003.33
2016-06-29T06:49:20.763Z,1003.31
2016-06-29T06:50:20.747Z,1003.36
2016-06-29T06:51:20.741Z,1003.29
2016-06-29T06:52:20.728Z,1003.36
2016-06-29T06:53:20.721Z,1003.35
2016-06-29T06:54:20.704Z,1003.27
2016-06-29T06:55:20.691Z,1003.42
2016-06-29T06:56:20.679Z,1003.41
2016-06-29T06:57:20.683Z,1003.4
2016-06-29T06:58:20.655Z,1003.41
2016-06-29T06:59:20.641Z,1003.36
2016-06-29T07:00:20.635Z,1003.43
2016-06-29T07:01:20.623Z,1003.33
2016-06-29T07:02:20.609Z,1003.33
2016-06-29T07:03:20.597Z,1003.36
2016-06-29T07:04:20.584Z,1003.35
2016-06-29T07:05:20.574Z,1003.32
2016-06-29T07:06:20.559Z,1003.36
2016-06-29T07:07:20.548Z,1003.4
2016-06-29T07:08:20.542Z,1003.39
2016-06-29T07:09:20.523Z,1003.43
2016-06-29T07:10:20.511Z,1003.44
2016-06-29T07:11:20.503Z,1003.49
2016-06-29T07:12:20.491Z,1003.43
2016-06-29T07:13:20.477Z,1003.41
2016-06-29T07:14:20.469Z,1003.45
2016-06-29T07:15:20.456Z,1003.48
2016-06-29T07:16:20.443Z,1003.46
2016-06-29T07:17:20.438Z,1003.45
2016-06-29T07:18:20.422Z,1003.53
2016-06-29T07:19:20.405Z,1003.48
2016-06-29T07:20:20.398Z,1003.51
2016-06-29T07:21:20.383Z,1003.49
2016-06-29T07:22:20.375Z,1003.5
2016-06-29T07:23:20.391Z,1003.55
2016-06-29T07:24:20.349Z,1003.49
2016-06-29T07:25:20.344Z,1003.58
2016-06-29T07:26:20.325Z,1003.61
2016-06-29T07:27:20.312Z,1003.6
2016-06-29T07:28:20.304Z,1003.56
2016-06-29T07:29:20.288Z,1003.61
2016-06-29T07:30:20.276Z,1003.6
2016-06-29T07:31:20.258Z,1003.58
2016-06-29T07:32:20.250Z,1003.56
2016-06-29T07:33:20.241Z,1003.55
2016-06-29T07:34:20.231Z,1003.66
2016-06-29T07:35:20.215Z,1003.68
2016-06-29T07:36:20.202Z,1003.68
2016-06-29T07:37:20.189Z,1003.59
2016-06-29T07:38:20.179Z,1003.62
2016-06-29T07:39:20.168Z,1003.61
2016-06-29T07:40:20.155Z,1003.64
2016-06-29T07:41:20.150Z,1003.61
2016-06-29T07:42:20.131Z,1003.61
2016-06-29T07:43:20.117Z,1003.6
2016-06-29T07:44:20.122Z,1003.67
2016-06-29T07:45:20.100Z,1003.61
2016-06-29T07:46:20.083Z,1003.64
2016-06-29T07:47:20.072Z,1003.63
2016-06-29T07:48:20.057Z,1003.63
2016-06-29T07:49:20.046Z,1003.6
2016-06-29T07:50:20.030Z,1003.6
2016-06-29T07:51:20.026Z,1003.56
2016-06-29T07:52:20.015Z,1003.56
2016-06-29T07:53:20.006Z,1003.63
2016-06-29T07:54:19.988Z,1003.53
2016-06-29T07:55:19.979Z,1003.55
2016-06-29T07:56:19.963Z,1003.56
2016-06-29T07:57:19.957Z,1003.65
2016-06-29T07:58:19.949Z,1003.57
2016-06-29T07:59:19.927Z,1003.57
2016-06-29T08:00:19.919Z,1003.59
2016-06-29T08:01:19.907Z,1003.62
2016-06-29T08:02:19.894Z,1003.6
2016-06-29T08:03:19.886Z,1003.6
2016-06-29T08:04:19.873Z,1003.61
2016-06-29T08:05:19.912Z,1003.62
2016-06-29T08:06:19.853Z,1003.7
2016-06-29T08:07:19.836Z,1003.6
2016-06-29T08:08:19.838Z,1003.58
2016-06-29T08:09:20.027Z,1003.68
2016-06-29T08:10:19.812Z,1003.58
2016-06-29T08:11:19.798Z,1003.7
2016-06-29T08:12:19.790Z,1003.69
2016-06-29T08:13:19.783Z,1003.68
2016-06-29T08:14:19.770Z,1003.56
2016-06-29T08:15:19.762Z,1003.69
2016-06-29T08:16:19.758Z,1003.65
2016-06-29T08:17:19.749Z,1003.62
2016-06-29T08:18:19.736Z,1003.74
2016-06-29T08:19:19.725Z,1003.73
2016-06-29T08:20:19.719Z,1003.73
2016-06-29T08:21:19.714Z,1003.65
2016-06-29T08:22:19.709Z,1003.76
2016-06-29T08:23:19.694Z,1003.69
2016-06-29T08:24:19.686Z,1003.75
2016-06-29T08:25:19.682Z,1003.81
2016-06-29T08:26:19.667Z,1003.8
2016-06-29T08:27:19.662Z,1003.74
2016-06-29T08:28:19.650Z,1003.78
2016-06-29T08:29:19.648Z,1003.72
2016-06-29T08:30:19.641Z,1003.67
2016-06-29T08:31:19.628Z,1003.71
2016-06-29T08:32:19.620Z,1003.75
2016-06-29T08:33:19.614Z,1003.8
2016-06-29T08:34:19.601Z,1003.75
2016-06-29T08:35:19.595Z,1003.82
2016-06-29T08:36:19.577Z,1003.85
2016-06-29T08:37:19.574Z,1004.04
2016-06-29T08:38:19.563Z,1003.83
2016-06-29T08:39:19.561Z,1003.88
2016-06-29T08:40:19.546Z,1003.93
2016-06-29T08:41:19.533Z,1003.89
2016-06-29T08:42:19.522Z,1003.89
2016-06-29T08:43:19.514Z,1003.9
2016-06-29T08:44:19.498Z,1003.88
2016-06-29T08:45:19.490Z,1003.88
2016-06-29T08:46:19.485Z,1003.98
2016-06-29T08:47:19.474Z,1003.94
2016-06-29T08:48:19.463Z,1003.96
2016-06-29T08:49:19.468Z,1003.96
2016-06-29T08:50:19.461Z,1003.91
2016-06-29T08:51:19.440Z,1003.98
2016-06-29T08:52:19.424Z,1003.98
2016-06-29T08:53:19.411Z,1003.95
2016-06-29T08:54:19.406Z,1003.96
2016-06-29T08:55:19.391Z,1003.93
2016-06-29T08:56:19.377Z,1003.96
2016-06-29T08:57:19.372Z,1003.95
2016-06-29T08:58:19.360Z,1004.01
2016-06-29T08:59:19.353Z,1004.04
2016-06-29T09:00:19.346Z,1004.03
2016-06-29T09:01:19.339Z,1004.09
2016-06-29T09:02:19.321Z,1004.06
2016-06-29T09:03:19.310Z,1003.99
2016-06-29T09:04:19.304Z,1003.99
2016-06-29T09:05:19.293Z,1004.05
2016-06-29T09:06:19.283Z,1003.91
2016-06-29T09:07:19.275Z,1004.01
2016-06-29T09:08:19.262Z,1004
2016-06-29T09:09:19.252Z,1003.99
2016-06-29T09:10:19.240Z,1004.02
2016-06-29T09:11:19.232Z,1004.04
2016-06-29T09:12:19.225Z,1004.02
2016-06-29T09:13:19.216Z,1004.06
2016-06-29T09:14:19.247Z,1004
2016-06-29T09:15:19.195Z,1004.12
2016-06-29T09:16:19.207Z,1004.04
2016-06-29T09:17:19.174Z,1004.05
2016-06-29T09:18:19.167Z,1004.09
2016-06-29T09:19:19.155Z,1004.08
2016-06-29T09:20:19.146Z,1004.05
2016-06-29T09:21:19.138Z,1004.08
2016-06-29T09:22:19.137Z,1004.07
2016-06-29T09:23:19.122Z,1004.08
2016-06-29T09:24:19.107Z,1004.18
2016-06-29T09:25:19.098Z,1004.14
2016-06-29T09:26:19.096Z,1004.12
2016-06-29T09:27:19.079Z,1004.16
2016-06-29T09:28:19.078Z,1004.14
2016-06-29T09:29:19.063Z,1004.13
2016-06-29T09:30:19.053Z,1004.09
2016-06-29T09:31:19.047Z,1004.15
2016-06-29T09:32:19.040Z,1004.16
2016-06-29T09:33:19.028Z,1004.17
2016-06-29T09:34:19.016Z,1004.15
2016-06-29T09:35:19.007Z,1004.21
2016-06-29T09:36:18.994Z,1004.2
2016-06-29T09:37:18.983Z,1004.24
2016-06-29T09:38:18.975Z,1004.24
2016-06-29T09:39:18.964Z,1004.27
2016-06-29T09:40:18.974Z,1004.3
2016-06-29T09:41:18.944Z,1004.26
2016-06-29T09:42:18.939Z,1004.35
2016-06-29T09:43:18.925Z,1004.28
2016-06-29T09:44:18.911Z,1004.24
2016-06-29T09:45:18.907Z,1004.26
2016-06-29T09:46:18.893Z,1004.29
2016-06-29T09:47:18.891Z,1004.29
2016-06-29T09:48:18.878Z,1004.31
2016-06-29T09:49:18.861Z,1004.36
2016-06-29T09:50:18.854Z,1004.38
2016-06-29T09:51:18.844Z,1004.39
2016-06-29T09:52:18.839Z,1004.34
2016-06-29T09:53:18.816Z,1004.35
2016-06-29T09:54:18.813Z,1004.36
2016-06-29T09:55:18.802Z,1004.35
2016-06-29T09:56:18.788Z,1004.32
2016-06-29T09:57:18.779Z,1004.25
2016-06-29T09:58:18.767Z,1004.33
2016-06-29T09:59:18.758Z,1004.38
2016-06-29T10:00:18.754Z,1004.38
2016-06-29T10:01:18.743Z,1004.38
2016-06-29T10:02:18.733Z,1004.43
2016-06-29T10:03:18.721Z,1004.39
2016-06-29T10:04:18.710Z,1004.36
2016-06-29T10:05:18.697Z,1004.41
2016-06-29T10:06:18.695Z,1004.41
2016-06-29T10:07:18.681Z,1004.39
2016-06-29T10:08:18.668Z,1004.41
2016-06-29T10:09:18.859Z,1004.41
2016-06-29T10:10:18.647Z,1004.48
2016-06-29T10:11:18.640Z,1004.45
2016-06-29T10:12:18.631Z,1004.43
2016-06-29T10:13:18.629Z,1004.45
2016-06-29T10:14:18.614Z,1004.53
2016-06-29T10:15:18.610Z,1004.37
2016-06-29T10:16:18.596Z,1004.38
2016-06-29T10:17:18.587Z,1004.45
2016-06-29T10:18:18.575Z,1004.55
2016-06-29T10:19:18.574Z,1004.55
2016-06-29T10:20:18.559Z,1004.65
2016-06-29T10:21:18.556Z,1004.54
2016-06-29T10:22:18.545Z,1004.52
2016-06-29T10:23:18.540Z,1004.58
2016-06-29T10:24:18.530Z,1004.58
2016-06-29T10:25:18.526Z,1004.59
2016-06-29T10:26:18.520Z,1004.63
2016-06-29T10:27:18.507Z,1004.61
2016-06-29T10:28:18.508Z,1004.63
2016-06-29T10:29:18.490Z,1004.65
2016-06-29T10:30:18.503Z,1004.66
2016-06-29T10:31:18.475Z,1004.72
2016-06-29T10:32:18.464Z,1004.66
2016-06-29T10:33:18.459Z,1004.71
2016-06-29T10:34:18.458Z,1004.68
2016-06-29T10:35:18.446Z,1004.74
2016-06-29T10:36:18.439Z,1004.82
2016-06-29T10:37:18.430Z,1004.68
2016-06-29T10:38:18.422Z,1004.78
2016-06-29T10:39:18.414Z,1004.7
2016-06-29T10:40:18.407Z,1004.79
2016-06-29T10:41:18.397Z,1004.73
2016-06-29T10:42:18.394Z,1004.65
2016-06-29T10:43:18.383Z,1004.75
2016-06-29T10:44:18.379Z,1004.87
2016-06-29T10:45:18.371Z,1004.77
2016-06-29T10:46:18.371Z,1004.85
2016-06-29T10:47:18.357Z,1004.75
2016-06-29T10:48:18.359Z,1004.84
2016-06-29T10:49:18.346Z,1004.77
2016-06-29T10:50:18.344Z,1004.88
2016-06-29T10:51:18.340Z,1004.82
2016-06-29T10:52:18.332Z,1004.8
2016-06-29T10:53:18.326Z,1004.76
2016-06-29T10:54:18.322Z,1004.68
2016-06-29T10:55:18.320Z,1004.8
2016-06-29T10:56:18.323Z,1004.66
2016-06-29T10:57:18.323Z,1004.74
2016-06-29T10:58:18.309Z,1004.62
2016-06-29T10:59:18.306Z,1004.7
2016-06-29T11:00:18.296Z,1004.69
2016-06-29T11:01:18.287Z,1004.71
2016-06-29T11:02:18.285Z,1004.65
2016-06-29T11:03:18.278Z,1004.62
2016-06-29T11:04:18.274Z,1004.59
2016-06-29T11:05:18.267Z,1004.63
2016-06-29T11:06:18.262Z,1004.68
2016-06-29T11:07:18.259Z,1004.65
2016-06-29T11:08:18.248Z,1004.6
2016-06-29T11:09:18.245Z,1004.63
2016-06-29T11:10:18.238Z,1004.64
2016-06-29T11:11:18.236Z,1004.75
2016-06-29T11:12:18.228Z,1004.68
2016-06-29T11:13:18.221Z,1004.66
2016-06-29T11:14:18.220Z,1004.66
2016-06-29T11:15:18.206Z,1004.63
2016-06-29T11:16:18.198Z,1004.68
2016-06-29T11:17:18.198Z,1004.66
2016-06-29T11:18:18.195Z,1004.66
2016-06-29T11:19:18.186Z,1004.66
2016-06-29T11:20:18.173Z,1004.77
2016-06-29T11:21:18.164Z,1004.72
2016-06-29T11:22:18.166Z,1004.68
2016-06-29T11:23:18.158Z,1004.68
2016-06-29T11:24:18.158Z,1004.68
2016-06-29T11:25:18.145Z,1004.69
2016-06-29T11:26:18.149Z,1004.61
2016-06-29T11:27:18.136Z,1004.67
2016-06-29T11:28:18.128Z,1004.64
2016-06-29T11:29:18.121Z,1004.67
2016-06-29T11:30:18.122Z,1004.62
2016-06-29T11:31:18.112Z,1004.67
2016-06-29T11:32:18.101Z,1004.71
2016-06-29T11:33:18.100Z,1004.72
2016-06-29T11:34:18.086Z,1004.68
2016-06-29T11:35:18.079Z,1004.66
2016-06-29T11:36:18.079Z,1004.76
2016-06-29T11:37:18.073Z,1004.73
2016-06-29T11:38:18.078Z,1004.74
2016-06-29T11:39:18.071Z,1004.66
2016-06-29T11:40:18.081Z,1004.72
2016-06-29T11:41:18.035Z,1004.73
2016-06-29T11:42:18.044Z,1004.7
2016-06-29T11:43:18.047Z,1004.72
2016-06-29T11:44:18.021Z,1004.72
2016-06-29T11:45:18.021Z,1004.8
2016-06-29T11:46:18.006Z,1004.76
2016-06-29T11:47:17.999Z,1004.7
2016-06-29T11:48:17.996Z,1004.74
2016-06-29T11:49:17.991Z,1004.69
2016-06-29T11:50:17.979Z,1004.75
2016-06-29T11:51:17.969Z,1004.78
2016-06-29T11:52:17.962Z,1004.71
2016-06-29T11:53:17.955Z,1004.74
2016-06-29T11:54:17.946Z,1004.68
2016-06-29T11:55:17.944Z,1004.75
2016-06-29T11:56:17.937Z,1004.8
2016-06-29T11:57:17.934Z,1004.81
2016-06-29T11:58:17.919Z,1004.76
2016-06-29T11:59:17.917Z,1004.78
2016-06-29T12:00:17.907Z,1004.79
2016-06-29T12:01:17.897Z,1004.7
2016-06-29T12:02:17.888Z,1004.74
2016-06-29T12:03:17.881Z,1004.71
2016-06-29T12:04:17.867Z,1004.75
2016-06-29T12:05:17.870Z,1004.73
2016-06-29T12:06:17.853Z,1004.73
2016-06-29T12:07:17.848Z,1004.77
2016-06-29T12:08:17.846Z,1004.75